createdAt,value
2022-10-22T00:00:11.398Z,25.45
2022-10-22T00:02:38.710Z,26.10
2022-10-22T00:05:06.201Z,23.80
2022-10-22T00:07:33.453Z,25.17
2022-10-22T00:10:00.524Z,24.88
2022-10-22T00:12:27.754Z,23.08
2022-10-22T00:14:54.612Z,25.98
2022-10-22T00:17:21.723Z,25.53
2022-10-22T00:19:48.670Z,22.33
2022-10-22T00:22:15.871Z,23.65
2022-10-22T00:24:43.320Z,25.88
2022-10-22T00:27:12.414Z,27.85
2022-10-22T00:29:39.430Z,26.50
2022-10-22T00:32:06.888Z,22.73
2022-10-22T00:34:33.896Z,26.35
2022-10-22T00:37:01.252Z,24.58
2022-10-22T00:39:28.886Z,27.92
2022-10-22T00:41:57.255Z,23.57
2022-10-22T00:45:01.211Z,28.92
2022-10-22T00:47:31.936Z,29.20
2022-10-22T00:50:00.394Z,24.70
2022-10-22T00:52:27.694Z,25.67
2022-10-22T00:54:54.956Z,28.87
2022-10-22T00:57:22.897Z,29.38
2022-10-22T00:59:50.269Z,29.85
2022-10-22T01:02:17.491Z,24.95
2022-10-22T01:04:45.371Z,28.20
2022-10-22T01:07:21.362Z,23.80
2022-10-22T01:10:23.692Z,27.02
2022-10-22T01:12:50.771Z,25.45
2022-10-22T01:16:03.630Z,24.17
2022-10-22T01:18:55.538Z,26.67
2022-10-22T01:21:31.140Z,20.67
2022-10-22T01:24:49.816Z,22.50
2022-10-22T01:27:40.060Z,26.10
2022-10-22T01:30:09.316Z,22.40
2022-10-22T01:33:01.888Z,27.58
2022-10-22T01:35:35.875Z,21.80
2022-10-22T01:38:07.654Z,23.92
2022-10-22T01:40:35.920Z,24.38
2022-10-22T01:43:06.072Z,19.88
2022-10-22T01:45:47.257Z,24.77
2022-10-22T01:48:35.633Z,22.83
2022-10-22T01:51:34.351Z,24.73
2022-10-22T01:54:27.773Z,23.50
2022-10-22T01:56:54.603Z,23.42
2022-10-22T01:59:52.251Z,23.70
2022-10-22T02:02:25.037Z,23.40
2022-10-22T02:05:02.252Z,17.75
2022-10-22T02:07:33.198Z,20.08
2022-10-22T02:10:01.007Z,26.05
2022-10-22T02:12:31.332Z,18.50
2022-10-22T02:15:00.883Z,18.97
2022-10-22T02:17:32.216Z,18.05
2022-10-22T02:20:09.013Z,19.55
2022-10-22T02:22:36.075Z,22.65
2022-10-22T02:25:04.365Z,16.65
2022-10-22T02:27:45.578Z,18.93
2022-10-22T02:30:18.957Z,21.65
2022-10-22T02:33:03.958Z,21.45
2022-10-22T02:35:31.888Z,22.90
2022-10-22T02:37:59.919Z,20.00
2022-10-22T02:40:28.885Z,17.67
2022-10-22T02:42:55.694Z,17.55
2022-10-22T02:45:22.951Z,23.67
2022-10-22T02:47:50.513Z,21.75
2022-10-22T02:50:17.733Z,19.58
2022-10-22T02:52:44.519Z,21.23
2022-10-22T02:55:11.675Z,21.05
2022-10-22T02:57:38.915Z,18.88
2022-10-22T03:00:07.918Z,18.00
2022-10-22T03:02:35.338Z,18.85
2022-10-22T03:05:02.478Z,21.90
2022-10-22T03:07:29.257Z,20.77
2022-10-22T03:09:56.129Z,19.88
2022-10-22T03:12:23.013Z,25.73
2022-10-22T03:14:49.766Z,18.95
2022-10-22T03:17:16.853Z,19.60
2022-10-22T03:19:43.695Z,20.35
2022-10-22T03:22:15.431Z,21.42
2022-10-22T03:24:46.474Z,20.30
2022-10-22T03:27:16.962Z,21.83
2022-10-22T03:29:44.431Z,25.77
2022-10-22T03:32:11.719Z,19.92
2022-10-22T03:34:38.474Z,26.38
2022-10-22T03:37:05.216Z,19.85
2022-10-22T03:39:34.671Z,19.95
2022-10-22T03:42:02.339Z,19.83
2022-10-22T03:44:30.538Z,20.58
2022-10-22T03:47:01.632Z,20.92
2022-10-22T03:49:29.572Z,20.60
2022-10-22T03:51:56.457Z,23.85
2022-10-22T03:54:23.715Z,19.37
2022-10-22T03:56:50.509Z,21.83
2022-10-22T03:59:17.324Z,22.83
2022-10-22T04:01:44.250Z,21.80
2022-10-22T04:04:10.937Z,19.30
2022-10-22T04:06:37.635Z,20.93
2022-10-22T04:09:04.995Z,19.20
2022-10-22T04:11:31.960Z,21.85
2022-10-22T04:13:58.775Z,24.73
2022-10-22T04:16:28.705Z,17.45
2022-10-22T04:18:58.154Z,20.10
2022-10-22T04:21:25.016Z,20.70
2022-10-22T04:23:53.117Z,19.42
2022-10-22T04:26:20.775Z,23.92
2022-10-22T04:28:49.078Z,19.77
2022-10-22T04:31:19.606Z,21.67
2022-10-22T04:33:46.877Z,18.13
2022-10-22T04:36:18.615Z,24.15
2022-10-22T04:38:47.762Z,20.40
2022-10-22T04:41:19.793Z,18.25
2022-10-22T04:43:47.292Z,20.97
2022-10-22T04:46:16.537Z,20.95
2022-10-22T04:48:44.909Z,17.25
2022-10-22T04:51:17.781Z,21.15
2022-10-22T04:53:45.910Z,38.50
2022-10-22T04:56:19.959Z,26.90
2022-10-22T04:58:48.716Z,21.33
2022-10-22T05:01:41.623Z,27.98
2022-10-22T05:04:13.716Z,27.08
2022-10-22T05:06:40.892Z,17.73
2022-10-22T05:09:14.187Z,18.33
2022-10-22T05:11:43.333Z,21.13
2022-10-22T05:14:11.277Z,29.83
2022-10-22T05:16:38.743Z,25.30
2022-10-22T05:19:06.674Z,20.63
2022-10-22T05:21:33.964Z,22.40
2022-10-22T05:24:01.284Z,20.20
2022-10-22T05:26:29.274Z,25.33
2022-10-22T05:28:56.322Z,20.08
2022-10-22T05:31:23.232Z,19.90
2022-10-22T05:33:50.153Z,22.00
2022-10-22T05:36:19.955Z,20.30
2022-10-22T05:38:47.321Z,18.52
2022-10-22T05:41:22.674Z,18.23
2022-10-22T05:43:50.236Z,17.02
2022-10-22T05:46:23.138Z,19.07
2022-10-22T05:48:55.167Z,26.52
2022-10-22T05:51:23.332Z,20.90
2022-10-22T05:53:59.533Z,27.17
2022-10-22T05:56:28.000Z,19.15
2022-10-22T05:58:55.241Z,24.60
2022-10-22T06:01:33.597Z,23.75
2022-10-22T06:04:03.171Z,18.67
2022-10-22T06:06:34.457Z,20.10
2022-10-22T06:09:18.597Z,26.10
2022-10-22T06:11:46.166Z,25.40
2022-10-22T06:14:13.484Z,29.55
2022-10-22T06:16:40.485Z,23.00
2022-10-22T06:19:08.333Z,23.90
2022-10-22T06:21:35.592Z,20.15
2022-10-22T06:24:02.490Z,20.80
2022-10-22T06:26:30.294Z,24.48
2022-10-22T06:28:57.658Z,19.88
2022-10-22T06:31:25.795Z,25.88
2022-10-22T06:33:52.791Z,22.98
2022-10-22T06:36:22.281Z,20.73
2022-10-22T06:38:52.912Z,29.42
2022-10-22T06:41:22.162Z,31.45
2022-10-22T06:43:51.430Z,28.80
2022-10-22T06:46:21.814Z,20.27
2022-10-22T06:49:12.155Z,20.83
2022-10-22T06:51:39.179Z,21.80
2022-10-22T06:54:06.070Z,21.00
2022-10-22T06:56:32.926Z,26.95
2022-10-22T06:58:59.976Z,23.85
2022-10-22T07:01:31.322Z,24.90
2022-10-22T07:03:58.412Z,20.10
2022-10-22T07:06:26.399Z,19.77
2022-10-22T07:08:54.747Z,22.95
2022-10-22T07:11:24.932Z,28.55
2022-10-22T07:13:54.517Z,21.63
2022-10-22T07:16:21.645Z,21.48
2022-10-22T07:18:49.046Z,21.70
2022-10-22T07:21:18.657Z,21.38
2022-10-22T07:23:45.573Z,24.33
2022-10-22T07:26:14.246Z,21.87
2022-10-22T07:28:41.553Z,20.92
2022-10-22T07:31:10.358Z,27.00
2022-10-22T07:33:38.320Z,22.40
2022-10-22T07:36:08.113Z,20.17
2022-10-22T07:38:35.958Z,21.90
2022-10-22T07:41:03.124Z,23.45
2022-10-22T07:43:30.356Z,22.13
2022-10-22T07:45:57.082Z,23.42
2022-10-22T07:48:25.036Z,23.77
2022-10-22T07:50:52.578Z,23.63
2022-10-22T07:53:19.436Z,26.02
2022-10-22T07:55:49.084Z,25.88
2022-10-22T07:58:16.916Z,23.48
2022-10-22T08:00:43.797Z,27.75
2022-10-22T08:03:14.211Z,27.13
2022-10-22T08:05:41.533Z,23.40
2022-10-22T08:08:08.273Z,26.00
2022-10-22T08:10:34.991Z,25.42
2022-10-22T08:13:02.162Z,21.02
2022-10-22T08:15:29.434Z,27.47
2022-10-22T08:17:56.365Z,23.15
2022-10-22T08:20:23.486Z,22.67
2022-10-22T08:22:50.272Z,21.23
2022-10-22T08:25:17.282Z,22.90
2022-10-22T08:27:45.973Z,21.80
2022-10-22T08:30:13.894Z,22.50
2022-10-22T08:32:41.555Z,25.58
2022-10-22T08:35:08.984Z,22.15
2022-10-22T08:37:36.272Z,23.50
2022-10-22T08:40:04.929Z,21.07
2022-10-22T08:43:02.572Z,24.02
2022-10-22T08:45:57.645Z,20.52
2022-10-22T08:48:41.853Z,21.77
2022-10-22T08:51:13.171Z,19.88
2022-10-22T08:53:51.476Z,21.20
2022-10-22T08:56:18.638Z,20.25
2022-10-22T08:58:58.873Z,19.80
2022-10-22T09:01:35.393Z,17.50
2022-10-22T09:04:17.372Z,19.75
2022-10-22T09:06:44.112Z,21.43
2022-10-22T09:09:15.862Z,19.30
2022-10-22T09:11:47.342Z,23.20
2022-10-22T09:14:22.653Z,21.63
2022-10-22T09:17:02.966Z,21.13
2022-10-22T09:19:38.772Z,22.93
2022-10-22T09:22:32.854Z,19.05
2022-10-22T09:25:12.918Z,20.20
2022-10-22T09:27:40.324Z,21.08
2022-10-22T09:30:11.590Z,20.23
2022-10-22T09:32:38.435Z,22.10
2022-10-22T09:35:11.297Z,20.33
2022-10-22T09:37:49.031Z,16.67
2022-10-22T09:40:17.073Z,15.90
2022-10-22T09:42:45.796Z,16.40
2022-10-22T09:45:21.117Z,18.47
2022-10-22T09:48:03.739Z,17.88
2022-10-22T09:50:45.813Z,18.25
2022-10-22T09:53:22.418Z,18.45
2022-10-22T09:58:23.591Z,19.20
2022-10-22T10:01:00.637Z,15.15
2022-10-22T10:03:31.679Z,20.63
2022-10-22T10:06:03.276Z,19.42
2022-10-22T10:08:33.737Z,17.98
2022-10-22T10:11:06.755Z,13.10
2022-10-22T10:13:54.591Z,17.48
2022-10-22T10:17:03.113Z,15.93
2022-10-22T10:19:51.255Z,17.73
2022-10-22T10:22:29.996Z,17.35
2022-10-22T10:25:27.729Z,19.60
2022-10-22T10:28:07.917Z,18.25
2022-10-22T10:30:43.935Z,15.55
2022-10-22T10:33:21.894Z,16.33
2022-10-22T10:36:10.012Z,16.00
2022-10-22T10:39:06.754Z,14.23
2022-10-22T10:41:59.038Z,17.27
2022-10-22T10:44:56.807Z,18.33
2022-10-22T10:47:39.221Z,15.68
2022-10-22T10:50:35.315Z,19.05
2022-10-22T10:53:28.236Z,14.93
2022-10-22T10:56:25.233Z,16.17
2022-10-22T10:59:12.437Z,13.57
2022-10-22T11:01:57.830Z,18.00
2022-10-22T11:04:34.097Z,16.98
2022-10-22T11:07:11.428Z,19.03
2022-10-22T11:10:02.892Z,15.60
2022-10-22T11:12:36.139Z,16.73
2022-10-22T11:15:13.818Z,16.52
2022-10-22T11:17:45.695Z,18.58
2022-10-22T11:20:35.518Z,19.77
2022-10-22T11:23:24.760Z,15.82
2022-10-22T11:25:52.115Z,18.17
2022-10-22T11:28:43.630Z,15.15
2022-10-22T11:31:14.801Z,14.38
2022-10-22T11:33:57.340Z,16.53
2022-10-22T11:36:33.403Z,18.60
2022-10-22T11:39:03.133Z,16.92
2022-10-22T11:41:32.914Z,18.65
2022-10-22T11:44:20.957Z,19.05
2022-10-22T11:46:53.458Z,14.50
2022-10-22T11:49:25.514Z,14.35
2022-10-22T11:52:05.474Z,18.90
2022-10-22T11:54:32.734Z,13.20
2022-10-22T11:57:21.693Z,13.18
2022-10-22T11:59:52.096Z,18.57
2022-10-22T12:02:37.586Z,16.95
2022-10-22T12:05:22.730Z,19.02
2022-10-22T12:08:01.395Z,14.20
2022-10-22T12:10:35.531Z,14.63
2022-10-22T12:13:12.238Z,15.80
2022-10-22T12:15:49.273Z,18.33
2022-10-22T12:18:16.967Z,12.98
2022-10-22T12:20:44.071Z,17.75
2022-10-22T12:23:12.856Z,19.98
2022-10-22T12:25:39.714Z,14.43
2022-10-22T12:28:12.053Z,14.15
2022-10-22T12:30:39.396Z,14.13
2022-10-22T12:33:08.271Z,14.40
2022-10-22T12:35:43.990Z,15.93
2022-10-22T12:38:19.891Z,13.70
2022-10-22T12:40:48.902Z,19.15
2022-10-22T12:43:37.357Z,15.90
2022-10-22T12:46:04.619Z,17.15
2022-10-22T12:48:36.207Z,16.63
2022-10-22T12:51:05.337Z,17.90
2022-10-22T12:53:35.647Z,13.68
2022-10-22T12:56:05.394Z,14.68
2022-10-22T12:58:59.069Z,15.25
2022-10-22T13:01:29.477Z,13.70
2022-10-22T13:04:27.523Z,16.70
2022-10-22T13:07:19.901Z,16.90
2022-10-22T13:10:15.766Z,17.88
2022-10-22T13:12:48.951Z,22.02
2022-10-22T13:15:29.716Z,17.52
2022-10-22T13:18:07.791Z,15.27
2022-10-22T13:20:34.958Z,14.35
2022-10-22T13:23:04.112Z,17.05
2022-10-22T13:25:33.579Z,15.80
2022-10-22T13:28:18.652Z,14.23
2022-10-22T13:31:08.483Z,16.63
2022-10-22T13:33:41.212Z,16.45
2022-10-22T13:36:14.100Z,15.13
2022-10-22T13:38:41.173Z,14.00
2022-10-22T13:41:27.872Z,17.05
2022-10-22T13:43:55.370Z,19.60
2022-10-22T13:46:23.681Z,14.13
2022-10-22T13:48:53.133Z,14.27
2022-10-22T13:51:41.572Z,17.35
2022-10-22T13:54:21.416Z,18.55
2022-10-22T13:56:48.396Z,23.57
2022-10-22T13:59:17.239Z,22.40
2022-10-22T14:01:47.120Z,18.17
2022-10-22T14:04:14.231Z,19.45
2022-10-22T14:06:41.056Z,25.35
2022-10-22T14:09:14.308Z,21.40
2022-10-22T14:11:41.230Z,19.27
2022-10-22T14:14:07.954Z,31.60
2022-10-22T14:16:36.363Z,16.42
2022-10-22T14:19:07.809Z,16.67
2022-10-22T14:21:37.393Z,18.87
2022-10-22T14:24:06.180Z,22.58
2022-10-22T14:26:35.371Z,18.95
2022-10-22T14:29:11.353Z,23.50
2022-10-22T14:31:51.679Z,17.85
2022-10-22T14:34:21.792Z,17.03
2022-10-22T14:36:48.670Z,21.25
2022-10-22T14:39:15.612Z,17.48
2022-10-22T14:41:46.670Z,20.05
2022-10-22T14:44:17.765Z,23.73
2022-10-22T14:46:47.894Z,19.80
2022-10-22T14:49:14.754Z,21.70
2022-10-22T14:51:41.794Z,17.42
2022-10-22T14:54:08.880Z,24.05
2022-10-22T14:59:02.434Z,18.40
2022-10-22T15:01:29.397Z,18.95
2022-10-22T15:03:56.272Z,18.45
2022-10-22T15:06:23.095Z,19.88
2022-10-22T15:08:50.011Z,20.63
2022-10-22T15:11:17.517Z,17.13
2022-10-22T15:13:44.254Z,16.55
2022-10-22T15:16:15.034Z,23.38
2022-10-22T15:18:42.255Z,14.88
2022-10-22T15:21:15.816Z,19.48
2022-10-22T15:23:42.893Z,18.23
2022-10-22T15:26:10.876Z,27.60
2022-10-22T15:28:38.989Z,35.72
2022-10-22T15:31:07.258Z,46.55
2022-10-22T15:33:34.483Z,38.50
2022-10-22T15:36:14.155Z,38.20
2022-10-22T15:38:40.975Z,41.15
2022-10-22T15:41:08.870Z,31.85
2022-10-22T15:43:36.257Z,30.42
2022-10-22T15:46:18.175Z,30.85
2022-10-22T15:48:45.401Z,28.70
2022-10-22T15:51:16.294Z,21.45
2022-10-22T15:53:44.054Z,19.98
2022-10-22T15:56:11.733Z,20.90
2022-10-22T15:58:39.997Z,17.63
2022-10-22T16:01:11.692Z,18.50
2022-10-22T16:03:39.071Z,18.70
2022-10-22T16:06:07.452Z,18.23
2022-10-22T16:08:34.467Z,18.35
2022-10-22T16:11:01.597Z,16.58
2022-10-22T16:13:28.389Z,15.63
2022-10-22T16:15:55.365Z,15.43
2022-10-22T16:18:22.595Z,18.15
2022-10-22T16:20:49.597Z,14.27
2022-10-22T16:23:16.409Z,19.02
2022-10-22T16:25:43.715Z,27.37
2022-10-22T16:28:11.717Z,19.60
2022-10-22T16:30:39.051Z,17.30
2022-10-22T16:33:07.495Z,15.43
2022-10-22T16:35:34.474Z,18.67
2022-10-22T16:38:01.254Z,20.13
2022-10-22T16:40:28.406Z,14.70
2022-10-22T16:42:55.136Z,15.15
2022-10-22T16:45:21.933Z,21.20
2022-10-22T16:47:49.294Z,17.55
2022-10-22T16:50:16.313Z,19.00
2022-10-22T16:52:43.078Z,15.23
2022-10-22T16:55:10.272Z,14.15
2022-10-22T16:57:37.194Z,15.98
2022-10-22T17:00:05.937Z,17.23
2022-10-22T17:02:32.957Z,20.47
2022-10-22T17:04:59.695Z,27.70
2022-10-22T17:07:26.406Z,69.13
2022-10-22T17:09:53.296Z,52.22
2022-10-22T17:12:20.118Z,71.28
2022-10-22T17:14:46.998Z,69.47
2022-10-22T17:17:13.931Z,62.58
2022-10-22T17:19:40.632Z,43.75
2022-10-22T17:22:07.412Z,31.90
2022-10-22T17:24:34.312Z,40.45
2022-10-22T17:27:01.420Z,30.57
2022-10-22T17:29:28.277Z,29.73
2022-10-22T17:31:55.070Z,35.38
2022-10-22T17:34:21.877Z,32.13
2022-10-22T17:36:48.635Z,29.80
2022-10-22T17:39:18.079Z,27.00
2022-10-22T17:41:45.174Z,35.53
2022-10-22T17:44:13.538Z,32.05
2022-10-22T17:46:40.878Z,29.13
2022-10-22T17:49:15.292Z,37.53
2022-10-22T17:51:42.353Z,31.43
2022-10-22T17:54:10.236Z,33.95
2022-10-22T17:56:37.336Z,25.10
2022-10-22T17:59:04.505Z,29.55
2022-10-22T18:01:34.581Z,31.27
2022-10-22T18:04:07.399Z,37.63
2022-10-22T18:06:37.164Z,27.33
2022-10-22T18:09:10.725Z,31.58
2022-10-22T18:11:39.255Z,28.48
2022-10-22T18:14:06.402Z,24.70
2022-10-22T18:16:33.325Z,33.70
2022-10-22T18:19:00.970Z,23.65
2022-10-22T18:21:30.209Z,21.80
2022-10-22T18:23:59.155Z,25.75
2022-10-22T18:26:27.047Z,20.15
2022-10-22T18:28:54.766Z,18.23
2022-10-22T18:31:23.938Z,17.10
2022-10-22T18:33:51.017Z,21.08
2022-10-22T18:36:21.339Z,42.03
2022-10-22T18:38:56.419Z,37.13
2022-10-22T18:41:23.894Z,28.13
2022-10-22T18:43:56.174Z,21.88
2022-10-22T18:46:23.937Z,31.58
2022-10-22T18:48:53.368Z,22.70
2022-10-22T18:51:20.940Z,28.67
2022-10-22T18:54:04.522Z,33.40
2022-10-22T18:56:39.755Z,29.15
2022-10-22T18:59:06.754Z,29.02
2022-10-22T19:01:33.633Z,32.55
2022-10-22T19:04:00.577Z,33.05
2022-10-22T19:06:33.320Z,32.00
2022-10-22T19:09:04.487Z,35.47
2022-10-22T19:11:32.084Z,33.95
2022-10-22T19:13:58.874Z,29.15
2022-10-22T19:16:26.257Z,38.40
2022-10-22T19:18:58.878Z,29.13
2022-10-22T19:21:25.757Z,33.75
2022-10-22T19:23:55.550Z,30.00
2022-10-22T19:26:22.376Z,37.20
2022-10-22T19:28:49.257Z,41.50
2022-10-22T19:31:20.159Z,40.77
2022-10-22T19:33:47.326Z,43.15
2022-10-22T19:36:16.879Z,43.85
2022-10-22T19:38:48.933Z,45.30
2022-10-22T19:41:19.070Z,44.88
2022-10-22T19:43:49.393Z,47.77
2022-10-22T19:46:17.799Z,42.55
2022-10-22T19:51:20.285Z,38.35
2022-10-22T19:53:48.612Z,28.23
2022-10-22T19:56:18.997Z,34.27
2022-10-22T19:58:46.575Z,33.20
2022-10-22T20:01:16.118Z,34.05
2022-10-22T20:03:43.040Z,30.65
2022-10-22T20:06:12.215Z,34.35
2022-10-22T20:08:39.371Z,32.67
2022-10-22T20:11:11.830Z,35.67
2022-10-22T20:16:06.963Z,31.92
2022-10-22T20:18:34.275Z,27.13
2022-10-22T20:21:08.779Z,21.97
2022-10-22T20:23:35.593Z,20.33
2022-10-22T20:26:02.359Z,21.52
2022-10-22T20:28:29.455Z,22.88
2022-10-22T20:30:56.432Z,20.98
2022-10-22T20:33:23.526Z,21.30
2022-10-22T20:36:05.837Z,26.73
2022-10-22T20:38:33.190Z,20.17
2022-10-22T20:41:02.361Z,23.50
2022-10-22T20:43:29.258Z,21.45
2022-10-22T20:45:56.249Z,21.80
2022-10-22T20:48:24.376Z,24.52
2022-10-22T20:50:51.196Z,20.63
2022-10-22T20:53:17.994Z,23.23
2022-10-22T20:55:45.094Z,25.65
2022-10-22T20:58:11.998Z,22.03
2022-10-22T21:00:38.887Z,28.00
2022-10-22T21:03:06.712Z,20.67
2022-10-22T21:05:33.889Z,20.65
2022-10-22T21:08:00.837Z,26.58
2022-10-22T21:10:32.387Z,22.17
2022-10-22T21:13:00.125Z,19.05
2022-10-22T21:15:27.153Z,17.90
2022-10-22T21:17:54.242Z,22.65
2022-10-22T21:20:23.889Z,20.20
2022-10-22T21:22:51.619Z,18.80
2022-10-22T21:25:18.492Z,24.35
2022-10-22T21:27:45.477Z,20.27
2022-10-22T21:30:13.212Z,23.50
2022-10-22T21:32:40.269Z,28.20
2022-10-22T21:35:07.859Z,22.17
2022-10-22T21:37:34.655Z,30.90
2022-10-22T21:40:02.270Z,35.72
2022-10-22T21:42:29.353Z,41.20
2022-10-22T21:44:56.147Z,49.75
2022-10-22T21:47:23.243Z,45.77
2022-10-22T21:49:50.210Z,50.10
2022-10-22T21:52:16.912Z,42.33
2022-10-22T21:54:43.957Z,34.17
2022-10-22T21:57:10.757Z,31.52
2022-10-22T21:59:37.514Z,30.33
2022-10-22T22:02:05.929Z,29.08
2022-10-22T22:04:33.405Z,31.70
2022-10-22T22:07:00.250Z,37.60
2022-10-22T22:09:27.165Z,34.33
2022-10-22T22:11:53.949Z,29.37
2022-10-22T22:14:20.726Z,28.83
2022-10-22T22:16:47.596Z,33.42
2022-10-22T22:19:14.516Z,29.70
2022-10-22T22:21:41.873Z,30.50
2022-10-22T22:24:11.513Z,30.80
2022-10-22T22:26:38.438Z,30.92
2022-10-22T22:29:05.954Z,27.83
2022-10-22T22:31:34.413Z,25.85
2022-10-22T22:34:05.432Z,25.83
2022-10-22T22:36:35.216Z,25.10
2022-10-22T22:39:03.481Z,27.98
2022-10-22T22:41:30.639Z,27.38
2022-10-22T22:43:57.558Z,25.23
2022-10-22T22:46:24.314Z,25.75
2022-10-22T22:48:51.898Z,27.27
2022-10-22T22:51:19.014Z,29.35
2022-10-22T22:53:46.271Z,26.88
2022-10-22T22:56:14.850Z,31.17
2022-10-22T22:58:42.356Z,22.75
2022-10-22T23:01:30.877Z,28.53
2022-10-22T23:04:00.052Z,28.05
2022-10-22T23:06:29.798Z,26.98
2022-10-22T23:08:57.962Z,25.90
2022-10-22T23:11:26.230Z,25.85
2022-10-22T23:13:56.197Z,26.23
2022-10-22T23:16:25.772Z,25.48
2022-10-22T23:18:53.833Z,23.38
2022-10-22T23:21:26.517Z,23.75
2022-10-22T23:23:58.793Z,25.50
2022-10-22T23:26:28.632Z,26.13
2022-10-22T23:28:59.598Z,23.90
2022-10-22T23:31:26.996Z,22.67
2022-10-22T23:33:53.932Z,31.48
2022-10-22T23:36:20.931Z,24.73
2022-10-22T23:38:47.996Z,21.50
2022-10-22T23:41:15.123Z,25.08
2022-10-22T23:43:41.969Z,26.05
2022-10-22T23:46:11.678Z,26.90
2022-10-22T23:48:39.430Z,25.63
2022-10-22T23:51:07.140Z,28.30
2022-10-22T23:53:34.157Z,30.42
2022-10-22T23:56:10.291Z,33.13
2022-10-22T23:58:37.513Z,22.50
